createdAt,value
2022-10-06T04:07:27.647Z,24.20
2022-10-06T05:46:01.437Z,24.60
2022-10-06T08:28:15.311Z,24.50
2022-10-06T08:35:53.304Z,24.40
2022-10-06T08:47:40.471Z,24.60
2022-10-06T08:58:57.378Z,24.60
2022-10-06T09:23:49.610Z,24.80
2022-10-06T11:03:09.651Z,24.80
2022-10-06T11:43:58.608Z,24.80
2022-10-06T11:46:44.060Z,24.80
2022-10-06T11:50:03.963Z,24.80
2022-10-06T11:53:13.787Z,25.00
2022-10-06T11:55:47.149Z,24.90
2022-10-06T11:58:41.935Z,25.00
2022-10-06T12:01:58.211Z,25.00
2022-10-06T12:05:59.718Z,25.00
2022-10-06T12:08:41.330Z,25.00
2022-10-06T12:11:53.237Z,25.00
2022-10-06T12:17:40.396Z,25.00
2022-10-06T12:20:51.438Z,25.10
2022-10-06T12:24:02.245Z,25.20
2022-10-06T12:26:56.615Z,25.30
2022-10-06T12:30:22.172Z,25.10
2022-10-06T12:37:21.654Z,25.20
2022-10-06T12:41:09.046Z,25.10
2022-10-06T12:47:17.054Z,25.10
2022-10-06T12:49:59.741Z,25.00
2022-10-06T13:01:23.897Z,25.10
2022-10-06T13:04:14.639Z,25.10
2022-10-06T13:07:19.572Z,25.00
2022-10-06T13:10:06.319Z,25.00
2022-10-06T13:12:44.204Z,25.00
2022-10-06T13:15:50.754Z,25.00
2022-10-06T13:18:38.776Z,25.10
2022-10-06T13:21:33.388Z,25.10
2022-10-06T13:24:20.829Z,25.10
2022-10-06T13:27:06.453Z,25.00
2022-10-06T13:29:41.963Z,25.00
2022-10-06T13:32:29.713Z,25.00
2022-10-06T13:35:09.453Z,25.00
2022-10-06T13:37:46.631Z,25.10
2022-10-06T13:40:47.772Z,25.00
2022-10-06T13:43:44.412Z,25.00
2022-10-06T13:46:22.963Z,25.00
2022-10-06T13:49:02.612Z,24.90
2022-10-06T13:51:48.682Z,25.00
2022-10-06T13:54:31.501Z,25.00
2022-10-06T13:57:08.066Z,25.00
2022-10-06T14:00:09.173Z,25.00
2022-10-06T14:02:54.725Z,25.00
2022-10-06T14:06:00.741Z,25.00
2022-10-06T14:09:18.770Z,24.90
2022-10-06T14:12:39.835Z,24.80
2022-10-06T14:15:57.899Z,24.80
2022-10-06T14:18:44.385Z,25.00
2022-10-06T14:21:50.266Z,24.90
2022-10-06T14:24:50.348Z,24.80
2022-10-06T14:28:02.468Z,24.70
2022-10-06T14:30:41.917Z,24.70
2022-10-06T14:33:33.001Z,24.80
2022-10-06T14:36:07.598Z,24.80
2022-10-06T14:39:34.067Z,24.80
2022-10-06T14:46:07.127Z,24.80
2022-10-06T14:53:58.194Z,24.80
2022-10-06T14:57:31.195Z,24.80
2022-10-06T15:00:55.220Z,24.70
2022-10-06T15:04:24.714Z,24.80
2022-10-06T15:07:22.965Z,24.80
2022-10-06T15:10:30.991Z,24.80
2022-10-06T15:13:46.371Z,24.80
2022-10-06T15:17:25.368Z,24.80
2022-10-06T15:20:46.430Z,24.80
2022-10-06T15:24:04.456Z,24.70
2022-10-06T15:27:25.082Z,24.60
2022-10-06T15:30:37.483Z,24.60
2022-10-06T15:34:28.562Z,24.70
2022-10-06T15:37:52.591Z,24.80
2022-10-06T15:41:28.624Z,24.70
2022-10-06T15:44:18.183Z,24.80
2022-10-06T15:50:46.706Z,24.60
2022-10-06T15:54:17.646Z,24.60
2022-10-06T15:57:37.730Z,24.50
2022-10-06T16:34:07.917Z,24.50
2022-10-06T16:45:20.201Z,24.40
2022-10-06T22:13:41.518Z,25.00
2022-10-06T23:59:24.432Z,24.90
